Time;durP1;ratioP1;P1;durP2;ratioP2;P2;SDS_P1;SDS_P2;PMS_P1;PMS_P2;Temp;Humidity;BMP_temperature;BMP_pressure;BME280_temperature;BME280_humidity;BME280_pressure;Samples;Min_cycle;Max_cycle;Signal;HPM_P1;HPM_P2
2022/10/15 00:02:23;;;;;;;98.95;44.05;;;12.40;99.90;;;;;;6245968;23;20675;-73
2022/10/15 00:04:49;;;;;;;92.65;43.63;;;12.40;99.90;;;;;;6246449;22;20016;-73
2022/10/15 00:07:15;;;;;;;88.93;43.33;;;12.40;99.90;;;;;;6245926;23;20016;-72
2022/10/15 00:09:40;;;;;;;95.35;45.95;;;12.40;99.90;;;;;;6244924;23;20679;-73
2022/10/15 00:12:06;;;;;;;84.25;43.25;;;12.40;99.90;;;;;;6246187;23;20012;-72
2022/10/15 00:14:32;;;;;;;101.82;48.60;;;12.40;99.90;;;;;;6218778;23;20524;-72
2022/10/15 00:17:00;;;;;;;88.15;44.53;;;12.40;99.90;;;;;;6245689;23;20012;-73
2022/10/15 00:19:26;;;;;;;99.00;46.15;;;12.40;99.90;;;;;;6245964;23;20012;-72
2022/10/15 00:21:53;;;;;;;90.03;44.97;;;12.40;99.90;;;;;;6245650;23;20396;-71
2022/10/15 00:24:19;;;;;;;85.28;45.95;;;12.40;99.90;;;;;;6246302;23;20028;-73
2022/10/15 00:26:44;;;;;;;85.95;44.17;;;12.40;99.90;;;;;;6245980;23;20451;-71
2022/10/15 00:29:10;;;;;;;85.22;43.92;;;12.50;99.90;;;;;;6246185;23;20019;-73
2022/10/15 00:31:36;;;;;;;97.43;47.83;;;12.40;99.90;;;;;;6245545;23;20012;-72
2022/10/15 00:34:02;;;;;;;99.10;45.60;;;12.50;99.90;;;;;;6246454;23;20015;-72
2022/10/15 00:36:31;;;;;;;88.65;44.40;;;12.40;99.90;;;;;;6219634;23;20024;-73
2022/10/15 00:38:57;;;;;;;85.65;42.78;;;12.40;99.90;;;;;;6245260;23;20023;-73
2022/10/15 00:41:32;;;;;;;89.00;45.63;;;12.40;99.90;;;;;;6244696;23;20017;-70
2022/10/15 00:44:22;;;;;;;102.32;47.80;;;12.40;99.90;;;;;;6219182;23;20024;-73
2022/10/15 00:46:52;;;;;;;82.18;44.72;;;12.40;99.90;;;;;;6228798;23;20444;-72
2022/10/15 00:49:39;;;;;;;89.00;45.53;;;12.40;99.90;;;;;;6244985;23;20031;-72
2022/10/15 00:52:11;;;;;;;91.95;45.42;;;12.40;99.90;;;;;;6217744;23;20031;-72
2022/10/15 00:54:41;;;;;;;81.47;45.25;;;12.40;99.90;;;;;;6245536;23;20027;-72
2022/10/15 00:57:08;;;;;;;86.82;46.85;;;12.40;99.90;;;;;;6219475;23;20035;-72
2022/10/15 00:59:37;;;;;;;106.70;49.30;;;12.40;99.90;;;;;;6218567;23;20126;-72
2022/10/15 01:02:04;;;;;;;94.40;48.80;;;12.40;99.90;;;;;;6244770;23;20023;-72
2022/10/15 01:04:30;;;;;;;97.32;47.65;;;12.40;99.90;;;;;;6244369;22;20008;-72
2022/10/15 01:06:55;;;;;;;95.20;47.88;;;12.40;99.90;;;;;;6217459;23;20306;-73
2022/10/15 01:09:23;;;;;;;94.82;46.05;;;12.50;99.90;;;;;;6244446;23;20016;-72
2022/10/15 01:11:54;;;;;;;104.60;48.38;;;12.40;99.90;;;;;;6244577;23;20413;-72
2022/10/15 01:14:46;;;;;;;86.65;45.10;;;12.50;99.90;;;;;;6244927;23;20345;-72
2022/10/15 01:17:36;;;;;;;81.93;43.88;;;12.40;99.90;;;;;;6221382;23;20119;-72
2022/10/15 01:20:40;;;;;;;85.75;44.65;;;12.40;99.90;;;;;;6218457;23;20026;-72
2022/10/15 01:23:11;;;;;;;81.18;44.08;;;12.40;99.90;;;;;;6245517;23;20350;-72
2022/10/15 01:26:06;;;;;;;78.03;42.85;;;12.30;99.90;;;;;;6245256;23;20337;-73
2022/10/15 01:29:21;;;;;;;80.20;42.60;;;12.40;99.90;;;;;;6245445;23;20020;-72
2022/10/15 01:32:02;;;;;;;79.30;42.30;;;12.30;99.90;;;;;;6164998;23;20495;-72
2022/10/15 01:34:52;;;;;;;93.05;44.13;;;12.40;99.90;;;;;;6218808;23;20016;-73
2022/10/15 04:44:08;;;;;;;86.53;42.60;;;12.00;99.90;;;;;;6239451;22;20028;-72
2022/10/15 04:46:34;;;;;;;92.20;42.60;;;12.00;99.90;;;;;;6242507;23;20321;-73
2022/10/15 04:48:59;;;;;;;89.30;43.17;;;12.10;99.90;;;;;;6242645;23;20012;-73
2022/10/15 04:51:25;;;;;;;101.40;44.40;;;12.00;99.90;;;;;;6243952;23;20012;-74
2022/10/15 04:53:51;;;;;;;100.15;44.70;;;12.00;99.90;;;;;;6243920;23;20027;-73
2022/10/15 04:56:19;;;;;;;114.75;45.88;;;12.00;99.90;;;;;;6242131;23;20047;-73
2022/10/15 04:58:46;;;;;;;124.90;46.72;;;12.00;99.90;;;;;;6243457;23;20047;-73
2022/10/15 05:01:14;;;;;;;97.30;42.22;;;12.00;99.90;;;;;;6240027;23;20090;-74
2022/10/15 05:03:41;;;;;;;95.57;45.15;;;12.00;99.90;;;;;;6243013;23;20082;-74
2022/10/15 05:06:10;;;;;;;96.60;44.40;;;12.10;99.90;;;;;;6241137;23;20055;-74
2022/10/15 05:08:37;;;;;;;94.97;43.17;;;12.10;99.90;;;;;;6239444;23;20035;-73
2022/10/15 05:11:08;;;;;;;93.60;44.50;;;12.00;99.90;;;;;;6242723;23;20082;-73
2022/10/15 05:13:35;;;;;;;100.97;44.58;;;11.90;99.90;;;;;;6242763;23;20090;-73
2022/10/15 05:16:17;;;;;;;97.22;44.53;;;12.00;99.90;;;;;;6242459;23;20023;-73
2022/10/15 05:18:44;;;;;;;92.05;43.55;;;11.90;99.90;;;;;;6242356;23;20023;-73
2022/10/15 05:21:11;;;;;;;85.10;41.37;;;11.90;99.90;;;;;;6243131;23;20023;-73
2022/10/15 05:23:37;;;;;;;83.32;41.17;;;12.00;99.90;;;;;;6243185;23;20239;-73
2022/10/15 05:26:06;;;;;;;89.68;42.85;;;11.90;99.90;;;;;;6241273;23;20008;-74
2022/10/15 05:28:32;;;;;;;96.63;45.58;;;11.90;99.90;;;;;;6241665;23;20012;-73
2022/10/15 05:31:12;;;;;;;103.85;43.95;;;11.90;99.90;;;;;;6241206;23;20344;-73
2022/10/15 05:33:38;;;;;;;101.10;45.58;;;11.90;99.90;;;;;;6243747;23;20012;-73
2022/10/15 05:36:16;;;;;;;97.82;44.78;;;11.90;99.90;;;;;;6251634;22;20042;-73
2022/10/15 05:38:55;;;;;;;96.82;44.42;;;11.90;99.90;;;;;;6274343;22;20043;-73
2022/10/15 05:41:21;;;;;;;94.13;45.50;;;11.90;99.90;;;;;;6272436;22;20019;-73
2022/10/15 05:43:48;;;;;;;97.43;44.03;;;11.90;99.90;;;;;;6273531;22;20080;-73
2022/10/15 05:46:14;;;;;;;110.00;46.30;;;11.90;99.90;;;;;;6272844;22;20016;-72
2022/10/15 05:48:40;;;;;;;94.05;46.38;;;11.90;99.90;;;;;;6273611;22;20019;-73
2022/10/15 05:51:14;;;;;;;92.38;45.30;;;11.80;99.90;;;;;;6275197;22;20358;-73
2022/10/15 05:53:42;;;;;;;98.15;46.20;;;11.90;99.90;;;;;;6275111;22;20022;-73
2022/10/15 05:56:08;;;;;;;100.95;48.85;;;11.90;99.90;;;;;;6274605;22;20020;-73
2022/10/15 05:58:35;;;;;;;94.90;47.80;;;11.90;99.90;;;;;;6274996;22;20443;-73
2022/10/15 06:01:03;;;;;;;97.38;47.15;;;11.90;99.90;;;;;;6273440;22;20012;-73
2022/10/15 06:03:30;;;;;;;107.10;49.13;;;11.90;99.90;;;;;;6275806;22;20354;-73
2022/10/15 06:05:55;;;;;;;107.50;49.20;;;11.90;99.90;;;;;;6277463;22;20016;-73
2022/10/15 06:08:22;;;;;;;106.82;48.95;;;11.90;99.90;;;;;;6276417;22;20030;-73
2022/10/15 06:10:48;;;;;;;117.40;51.50;;;11.90;99.90;;;;;;6276227;22;20012;-73
2022/10/15 06:13:14;;;;;;;108.43;50.88;;;11.90;99.90;;;;;;6276586;22;20114;-73
2022/10/15 06:15:41;;;;;;;108.68;50.88;;;11.90;99.90;;;;;;6274932;22;20427;-72
2022/10/15 06:18:08;;;;;;;120.32;52.97;;;11.90;99.90;;;;;;6250229;22;20039;-73
2022/10/15 06:20:34;;;;;;;115.03;52.80;;;11.90;99.90;;;;;;6277170;22;20054;-73
2022/10/15 06:23:00;;;;;;;115.53;52.40;;;11.90;99.90;;;;;;6276528;22;20069;-73
2022/10/15 06:25:26;;;;;;;131.57;51.85;;;11.90;99.90;;;;;;6277309;22;20018;-72
2022/10/15 06:27:52;;;;;;;130.02;54.95;;;11.90;99.90;;;;;;6277111;22;20019;-72
2022/10/15 06:30:18;;;;;;;118.35;54.28;;;11.90;99.90;;;;;;6276550;22;20024;-73
2022/10/15 06:32:51;;;;;;;121.35;53.45;;;11.90;99.90;;;;;;6276946;22;20058;-73
2022/10/15 06:35:18;;;;;;;116.40;53.33;;;11.90;99.90;;;;;;6276624;22;20015;-73
2022/10/15 06:37:44;;;;;;;110.18;51.45;;;12.70;99.90;;;;;;6275927;22;20494;-73
2022/10/15 06:40:11;;;;;;;147.02;56.28;;;12.00;99.90;;;;;;6276851;22;20016;-73
2022/10/15 06:42:36;;;;;;;132.63;56.45;;;12.00;99.90;;;;;;6275869;22;20012;-73
2022/10/15 06:45:03;;;;;;;126.63;53.80;;;12.00;99.90;;;;;;6276439;22;20011;-73
2022/10/15 06:47:29;;;;;;;128.43;54.70;;;12.00;99.90;;;;;;6275881;22;20384;-73
2022/10/15 06:49:54;;;;;;;116.47;52.70;;;12.00;99.90;;;;;;6276660;22;20026;-72
2022/10/15 06:52:20;;;;;;;127.15;54.85;;;12.00;99.90;;;;;;6248780;22;20313;-73
2022/10/15 06:54:46;;;;;;;118.20;53.58;;;12.00;99.90;;;;;;6275017;22;20081;-72
2022/10/15 06:57:12;;;;;;;139.90;56.75;;;12.00;99.90;;;;;;6273997;22;20015;-73
2022/10/15 06:59:37;;;;;;;141.32;56.53;;;12.10;99.90;;;;;;6275406;22;20011;-73
2022/10/15 07:02:03;;;;;;;120.43;54.55;;;12.10;99.90;;;;;;6276045;22;20019;-72
2022/10/15 07:04:29;;;;;;;118.20;53.72;;;12.10;99.90;;;;;;6275861;22;20082;-72
2022/10/15 07:06:54;;;;;;;113.85;53.20;;;12.10;99.90;;;;;;6272051;22;20019;-73
2022/10/15 07:09:20;;;;;;;143.25;58.13;;;12.10;99.90;;;;;;6274218;22;20020;-73
2022/10/15 07:11:46;;;;;;;121.18;55.05;;;12.20;99.90;;;;;;6275684;22;20131;-73
2022/10/15 07:14:11;;;;;;;126.22;55.63;;;12.20;99.90;;;;;;6249413;22;20069;-73
2022/10/15 07:16:38;;;;;;;114.65;51.85;;;12.20;99.90;;;;;;6276398;22;20030;-72
2022/10/15 07:19:04;;;;;;;111.05;53.67;;;12.20;99.90;;;;;;6276916;22;20123;-72
2022/10/15 07:21:30;;;;;;;110.95;51.40;;;12.20;99.90;;;;;;6276729;22;20331;-72
2022/10/15 07:23:56;;;;;;;126.70;53.97;;;12.20;99.90;;;;;;6276402;22;20016;-74
2022/10/15 07:26:21;;;;;;;116.82;52.83;;;12.20;99.90;;;;;;6275784;22;20079;-73
2022/10/15 07:28:47;;;;;;;122.75;53.90;;;12.20;99.90;;;;;;6276436;22;20043;-72
2022/10/15 07:31:13;;;;;;;113.38;52.22;;;12.30;99.90;;;;;;6275753;22;20012;-73
2022/10/15 07:33:41;;;;;;;119.55;53.47;;;12.30;99.90;;;;;;6276050;22;20039;-72
2022/10/15 07:36:10;;;;;;;103.25;51.05;;;12.40;99.90;;;;;;6276030;22;20008;-73
2022/10/15 07:38:35;;;;;;;139.27;55.90;;;12.30;99.90;;;;;;6275790;22;20008;-73
2022/10/15 07:41:03;;;;;;;119.80;56.22;;;12.40;99.90;;;;;;6248703;22;20137;-73
2022/10/15 07:43:29;;;;;;;113.43;51.33;;;12.40;99.90;;;;;;6275859;22;20012;-74
2022/10/15 07:45:55;;;;;;;116.22;53.78;;;12.40;99.90;;;;;;6276109;22;20278;-73
2022/10/15 07:48:22;;;;;;;112.05;52.95;;;12.40;99.90;;;;;;6276689;22;20465;-73
2022/10/15 07:50:56;;;;;;;111.60;52.78;;;12.40;99.90;;;;;;6276017;22;20007;-72
2022/10/15 07:53:22;;;;;;;126.07;54.75;;;12.50;99.90;;;;;;6276508;22;20015;-73
2022/10/15 07:55:47;;;;;;;106.95;51.40;;;12.50;99.90;;;;;;6275986;22;20018;-73
2022/10/15 07:58:13;;;;;;;104.72;51.10;;;12.80;99.90;;;;;;6276147;22;20022;-73
2022/10/15 08:00:38;;;;;;;112.13;53.63;;;12.70;99.90;;;;;;6276375;22;20072;-73
2022/10/15 08:03:04;;;;;;;104.20;51.70;;;12.80;99.90;;;;;;6275730;22;20138;-73
2022/10/15 08:05:30;;;;;;;95.07;47.40;;;12.90;99.90;;;;;;6275958;22;20024;-74
2022/10/15 08:07:55;;;;;;;94.82;48.58;;;13.10;99.90;;;;;;6276298;22;20012;-73
2022/10/15 08:10:21;;;;;;;89.80;46.25;;;13.20;99.90;;;;;;6274969;22;20373;-73
2022/10/15 08:12:46;;;;;;;99.20;49.03;;;13.30;99.90;;;;;;6275784;22;20067;-73
2022/10/15 08:15:12;;;;;;;83.45;44.08;;;13.30;99.90;;;;;;6248187;22;20023;-73
2022/10/15 08:17:38;;;;;;;84.20;45.42;;;13.20;99.90;;;;;;6248717;22;20043;-73
2022/10/15 08:20:04;;;;;;;82.25;43.33;;;13.20;99.90;;;;;;6275932;22;20087;-73
2022/10/15 08:22:30;;;;;;;90.75;45.72;;;13.20;99.90;;;;;;6275898;22;20016;-72
2022/10/15 08:24:55;;;;;;;85.75;45.97;;;13.30;99.90;;;;;;6276176;22;20011;-73
2022/10/15 08:27:21;;;;;;;87.78;44.20;;;13.40;99.90;;;;;;6274855;22;20015;-73
2022/10/15 08:29:47;;;;;;;80.00;43.67;;;13.40;99.90;;;;;;6275480;22;20015;-72
2022/10/15 08:32:12;;;;;;;82.95;44.90;;;13.40;99.90;;;;;;6276020;22;20054;-73
2022/10/15 08:34:38;;;;;;;84.97;45.83;;;13.40;99.90;;;;;;6276150;22;20016;-73
2022/10/15 08:37:03;;;;;;;82.53;44.70;;;13.30;99.90;;;;;;6275180;22;20039;-73
2022/10/15 08:39:29;;;;;;;76.13;43.38;;;13.50;99.90;;;;;;6275707;22;20058;-74
2022/10/15 08:42:04;;;;;;;90.78;44.88;;;13.50;99.90;;;;;;6275693;22;20011;-72
2022/10/15 08:44:46;;;;;;;73.05;41.50;;;13.60;99.90;;;;;;6275357;22;21177;-72
2022/10/15 08:47:33;;;;;;;82.80;44.90;;;13.60;99.90;;;;;;6275131;22;20022;-73
2022/10/15 08:50:02;;;;;;;75.93;43.50;;;13.70;99.90;;;;;;6275526;22;20016;-72
2022/10/15 08:52:46;;;;;;;68.60;41.38;;;13.80;99.90;;;;;;6274950;22;20011;-73
2022/10/15 08:55:14;;;;;;;76.40;44.28;;;13.70;99.90;;;;;;6275172;22;20039;-74
2022/10/15 08:57:42;;;;;;;67.50;39.33;;;13.80;99.90;;;;;;6274971;22;20019;-73
2022/10/15 09:00:11;;;;;;;66.32;39.17;;;13.90;99.90;;;;;;6275146;22;20016;-73
2022/10/15 09:02:55;;;;;;;69.82;39.85;;;13.90;99.90;;;;;;6275533;22;20086;-73
2022/10/15 09:05:30;;;;;;;71.57;40.92;;;13.90;99.90;;;;;;6249461;22;20053;-73
2022/10/15 09:08:11;;;;;;;79.93;43.30;;;13.90;99.90;;;;;;6273615;22;20019;-73
2022/10/15 09:10:47;;;;;;;75.20;41.55;;;13.90;99.90;;;;;;6274977;22;20391;-71
2022/10/15 09:13:23;;;;;;;74.28;44.28;;;13.90;99.90;;;;;;6274736;22;20053;-72
2022/10/15 09:16:04;;;;;;;80.63;44.50;;;13.90;99.90;;;;;;6275472;22;20023;-72
2022/10/15 09:18:34;;;;;;;76.35;46.10;;;13.90;99.90;;;;;;6275054;22;20019;-73
2022/10/15 09:21:03;;;;;;;79.22;44.92;;;13.90;99.90;;;;;;6275848;22;20015;-73
2022/10/15 09:23:29;;;;;;;69.82;41.70;;;13.90;99.90;;;;;;6274432;22;20019;-73
2022/10/15 09:26:24;;;;;;;69.05;39.75;;;13.90;99.90;;;;;;6273813;22;20039;-73
2022/10/15 09:29:20;;;;;;;63.83;38.17;;;13.90;99.90;;;;;;6275027;22;20016;-73
2022/10/15 09:32:04;;;;;;;62.55;37.65;;;14.00;99.90;;;;;;6274045;22;20022;-71
2022/10/15 09:34:30;;;;;;;61.58;37.47;;;14.00;99.90;;;;;;6246113;22;20016;-72
2022/10/15 09:37:00;;;;;;;65.82;39.67;;;14.00;99.90;;;;;;6274862;22;20043;-72
2022/10/15 09:39:38;;;;;;;60.55;36.47;;;14.10;99.90;;;;;;6276044;22;20019;-73
2022/10/15 09:42:18;;;;;;;53.90;32.87;;;14.00;99.90;;;;;;6277197;22;20435;-72
2022/10/15 09:44:45;;;;;;;52.00;32.72;;;14.00;99.90;;;;;;6276988;22;20016;-73
2022/10/15 09:47:28;;;;;;;53.33;33.75;;;13.90;99.90;;;;;;6277093;22;20019;-72
2022/10/15 09:49:53;;;;;;;57.78;33.80;;;13.90;99.90;;;;;;6249700;22;20026;-73
2022/10/15 09:52:44;;;;;;;57.20;32.80;;;14.10;99.90;;;;;;6277385;22;20040;-72
2022/10/15 09:55:17;;;;;;;47.58;30.27;;;13.70;99.90;;;;;;6276415;22;20051;-74
2022/10/15 09:57:47;;;;;;;54.95;32.17;;;13.70;99.90;;;;;;6275105;22;20020;-73
2022/10/15 10:00:14;;;;;;;55.08;31.27;;;13.60;99.90;;;;;;6248066;22;20016;-73
2022/10/15 10:02:40;;;;;;;54.85;31.88;;;13.60;99.90;;;;;;6276033;22;20012;-72
2022/10/15 10:05:34;;;;;;;59.30;33.15;;;13.50;99.90;;;;;;6249511;22;20023;-72
2022/10/15 10:08:18;;;;;;;63.38;34.25;;;13.50;99.90;;;;;;6272950;22;20082;-72
2022/10/15 10:10:52;;;;;;;61.58;34.15;;;13.50;99.90;;;;;;6277019;22;20018;-73
2022/10/15 10:13:23;;;;;;;58.50;33.53;;;13.40;99.90;;;;;;6275710;22;20015;-72
2022/10/15 10:15:52;;;;;;;68.07;35.42;;;13.40;99.90;;;;;;6277110;22;20015;-73
2022/10/15 10:18:20;;;;;;;62.40;35.35;;;13.50;99.90;;;;;;6276796;22;20104;-72
2022/10/15 10:20:52;;;;;;;;;;;13.50;99.90;;;;;;6277100;22;20042;-72
2022/10/15 10:23:23;;;;;;;65.18;33.97;;;13.40;99.90;;;;;;6275925;22;19953;-71
2022/10/15 10:25:49;;;;;;;63.63;32.60;;;13.40;99.90;;;;;;6276968;22;20020;-72
2022/10/15 10:28:25;;;;;;;59.00;32.13;;;13.40;99.90;;;;;;6277040;22;20016;-72
2022/10/15 10:30:57;;;;;;;64.00;32.42;;;13.30;99.90;;;;;;6275787;22;20087;-71
2022/10/15 10:33:36;;;;;;;53.55;29.13;;;13.30;99.90;;;;;;6276705;22;20419;-71
2022/10/15 10:36:04;;;;;;;51.47;27.67;;;13.30;99.90;;;;;;6276365;22;20023;-72
2022/10/15 10:38:36;;;;;;;55.50;26.58;;;13.40;99.90;;;;;;6277349;22;20022;-72
2022/10/15 10:41:08;;;;;;;51.17;27.17;;;13.50;99.90;;;;;;6277024;22;20083;-72
2022/10/15 10:43:39;;;;;;;44.20;24.63;;;13.50;99.90;;;;;;6274959;22;20016;-73
2022/10/15 10:46:14;;;;;;;43.88;24.33;;;13.50;99.90;;;;;;6274848;22;20038;-74
2022/10/15 10:48:51;;;;;;;43.50;24.63;;;13.50;99.90;;;;;;6275151;22;20022;-72
2022/10/15 10:51:23;;;;;;;44.58;24.25;;;13.60;99.90;;;;;;6275539;22;20047;-72
2022/10/15 10:53:50;;;;;;;42.08;23.35;;;13.60;99.90;;;;;;6247503;22;20011;-72
2022/10/15 10:56:21;;;;;;;39.53;23.13;;;13.70;99.90;;;;;;6274891;22;20012;-71
2022/10/15 10:58:54;;;;;;;39.72;22.27;;;13.80;99.90;;;;;;6274805;22;20689;-73
2022/10/15 11:01:19;;;;;;;41.15;22.55;;;13.90;99.90;;;;;;6275275;22;20014;-72
2022/10/15 11:03:45;;;;;;;38.10;22.35;;;14.00;99.90;;;;;;6233585;22;20044;-73
2022/10/15 11:06:11;;;;;;;43.45;22.90;;;14.50;99.90;;;;;;6243031;23;20027;-74
2022/10/15 11:09:03;;;;;;;37.35;20.92;;;14.10;99.90;;;;;;6245110;23;20016;-73
2022/10/15 11:11:41;;;;;;;34.13;20.42;;;14.00;99.90;;;;;;6245132;23;20046;-73
2022/10/15 11:14:36;;;;;;;30.88;19.48;;;14.10;99.90;;;;;;6245229;23;20036;-74
2022/10/15 11:17:44;;;;;;;29.70;19.45;;;14.10;99.90;;;;;;6246768;23;20299;-73
2022/10/15 11:20:27;;;;;;;32.80;20.02;;;14.20;99.90;;;;;;6219129;23;20036;-74
2022/10/15 11:22:58;;;;;;;36.35;20.52;;;14.20;99.90;;;;;;6246441;23;20020;-73
2022/10/15 11:25:34;;;;;;;29.40;19.30;;;14.30;99.90;;;;;;6245521;23;20072;-73
2022/10/15 11:28:18;;;;;;;24.83;17.30;;;14.30;99.90;;;;;;6245810;23;20020;-73
2022/10/15 11:31:06;;;;;;;26.73;17.77;;;14.50;99.90;;;;;;6246086;23;20013;-73
2022/10/15 11:33:47;;;;;;;30.35;17.33;;;14.50;99.90;;;;;;6246044;23;20022;-73
2022/10/15 11:36:27;;;;;;;24.92;16.20;;;14.60;99.90;;;;;;6245881;23;20020;-73
2022/10/15 11:39:28;;;;;;;23.20;15.93;;;14.70;99.90;;;;;;6217141;23;20047;-72
2022/10/15 11:42:20;;;;;;;24.42;15.98;;;14.70;99.90;;;;;;6245877;23;20012;-72
2022/10/15 11:44:59;;;;;;;23.88;15.05;;;14.70;99.90;;;;;;6244971;23;20016;-70
2022/10/15 11:47:27;;;;;;;;;;;14.60;99.90;;;;;;6192071;23;20070;-72
2022/10/15 11:49:53;;;;;;;24.70;16.10;;;14.70;99.90;;;;;;6243789;23;19916;-72
2022/10/15 11:52:46;;;;;;;24.90;16.77;;;14.70;99.90;;;;;;6217157;23;20039;-72
2022/10/15 11:55:22;;;;;;;27.27;16.38;;;14.70;99.90;;;;;;6244389;23;20479;-72
2022/10/15 11:57:52;;;;;;;27.45;17.20;;;14.80;99.90;;;;;;6217258;23;20103;-71
2022/10/15 12:00:20;;;;;;;26.45;17.55;;;14.80;99.90;;;;;;6244200;23;20013;-72
2022/10/15 12:02:48;;;;;;;25.75;16.45;;;14.80;99.90;;;;;;6243763;23;20496;-73
2022/10/15 12:05:37;;;;;;;26.60;17.67;;;15.00;99.90;;;;;;6245267;22;20128;-73
2022/10/15 12:08:04;;;;;;;24.88;17.33;;;15.00;99.90;;;;;;6246196;23;20004;-74
2022/10/15 12:10:54;;;;;;;25.77;16.10;;;15.10;99.90;;;;;;6218530;23;20012;-71
2022/10/15 12:13:22;;;;;;;25.08;16.35;;;15.10;99.90;;;;;;6245254;23;20740;-72
2022/10/15 12:16:07;;;;;;;24.65;16.73;;;15.20;99.90;;;;;;6245008;23;20019;-74
2022/10/15 12:18:39;;;;;;;24.80;16.60;;;15.10;99.90;;;;;;6244712;23;20451;-74
2022/10/15 12:21:32;;;;;;;27.88;16.70;;;15.20;99.90;;;;;;6245775;23;20016;-72
2022/10/15 12:23:58;;;;;;;26.35;16.83;;;15.10;99.90;;;;;;6245700;23;20087;-72
2022/10/15 12:26:26;;;;;;;23.58;17.05;;;15.10;99.90;;;;;;6245558;23;20024;-72
2022/10/15 12:28:55;;;;;;;27.08;16.67;;;15.00;99.90;;;;;;6245908;23;20079;-73
2022/10/15 12:31:20;;;;;;;25.27;16.85;;;15.00;99.90;;;;;;6244568;23;20083;-73
2022/10/15 12:33:50;;;;;;;22.70;16.30;;;14.90;99.90;;;;;;6245202;23;20036;-72
2022/10/15 12:36:29;;;;;;;21.95;15.90;;;15.00;99.90;;;;;;6245117;23;20519;-71
2022/10/15 12:39:00;;;;;;;25.92;16.58;;;15.00;99.90;;;;;;6245077;23;20028;-73
2022/10/15 12:41:42;;;;;;;19.77;15.70;;;15.20;99.90;;;;;;6243870;23;20445;-73
2022/10/15 12:44:25;;;;;;;23.15;16.48;;;15.10;99.90;;;;;;6244066;23;20020;-73
2022/10/15 12:46:52;;;;;;;23.15;15.02;;;15.00;99.90;;;;;;6242056;23;20028;-73
2022/10/15 12:49:29;;;;;;;26.42;15.27;;;15.00;99.90;;;;;;6243694;23;20352;-73
2022/10/15 12:51:56;;;;;;;21.70;14.32;;;15.00;99.90;;;;;;6243078;23;20026;-72
2022/10/15 12:54:42;;;;;;;26.27;18.98;;;15.00;99.90;;;;;;6243773;23;20443;-73
2022/10/15 12:57:30;;;;;;;24.00;15.52;;;15.00;99.90;;;;;;6244992;23;20027;-72
2022/10/15 13:00:19;;;;;;;21.30;16.25;;;15.00;99.90;;;;;;6244121;23;20012;-73
2022/10/15 13:02:46;;;;;;;27.08;16.00;;;15.00;99.90;;;;;;6243873;23;20440;-73
2022/10/15 13:05:31;;;;;;;26.23;17.03;;;14.90;99.90;;;;;;6258513;22;20012;-72
2022/10/15 13:08:02;;;;;;;26.15;17.75;;;14.90;99.90;;;;;;6274262;22;20019;-73
2022/10/15 13:10:33;;;;;;;25.70;17.73;;;14.90;99.90;;;;;;6247258;22;20443;-70
2022/10/15 13:13:11;;;;;;;25.00;17.77;;;14.80;99.90;;;;;;6275222;22;20012;-72
2022/10/15 13:15:38;;;;;;;;;;;14.80;99.90;;;;;;6276123;22;20035;-73
2022/10/15 13:18:09;;;;;;;30.42;18.65;;;14.80;99.90;;;;;;6248236;22;19922;-73
2022/10/15 13:20:38;;;;;;;28.73;19.33;;;14.80;99.90;;;;;;6275628;22;20038;-73
2022/10/15 13:23:29;;;;;;;;;;;14.80;99.90;;;;;;6275655;22;20439;-73
2022/10/15 13:26:17;;;;;;;28.98;19.70;;;14.80;99.90;;;;;;6267540;22;19982;-72
2022/10/15 13:28:44;;;;;;;28.80;19.02;;;14.80;99.90;;;;;;6274365;22;20030;-74
2022/10/15 13:31:24;;;;;;;31.05;20.38;;;14.90;99.90;;;;;;6273379;22;20054;-73
2022/10/15 13:33:53;;;;;;;30.45;20.70;;;15.60;99.90;;;;;;6275359;22;20022;-73
2022/10/15 13:36:30;;;;;;;40.30;21.92;;;14.90;99.90;;;;;;6275385;22;20015;-73
2022/10/15 13:39:04;;;;;;;32.58;19.65;;;14.90;99.90;;;;;;6275748;22;20362;-72
2022/10/15 13:41:39;;;;;;;32.97;19.25;;;15.00;99.90;;;;;;6274773;22;20053;-73
2022/10/15 13:44:05;;;;;;;32.90;20.02;;;15.00;99.90;;;;;;6273771;22;20016;-73
2022/10/15 13:46:35;;;;;;;30.05;19.08;;;14.90;99.90;;;;;;6273973;22;20024;-73
2022/10/15 13:49:09;;;;;;;29.60;18.48;;;14.90;99.90;;;;;;6247959;22;20020;-74
2022/10/15 13:51:45;;;;;;;33.30;19.75;;;14.90;99.90;;;;;;6275353;22;20019;-73
2022/10/15 13:54:18;;;;;;;31.50;18.27;;;14.90;99.90;;;;;;6274959;22;20019;-75
2022/10/15 13:56:54;;;;;;;29.33;17.75;;;14.90;99.90;;;;;;6247804;22;20016;-73
2022/10/15 13:59:21;;;;;;;32.85;18.65;;;14.90;99.90;;;;;;6275198;22;20034;-73
2022/10/15 14:01:51;;;;;;;31.37;17.33;;;15.20;99.90;;;;;;6274952;22;20047;-73
2022/10/15 14:04:20;;;;;;;27.27;17.40;;;14.90;99.90;;;;;;6272440;22;20016;-72
2022/10/15 14:07:01;;;;;;;30.30;17.65;;;14.80;99.90;;;;;;6273526;22;20126;-73
2022/10/15 14:09:30;;;;;;;26.65;16.85;;;14.80;99.90;;;;;;6274050;22;20073;-72
2022/10/15 14:11:57;;;;;;;29.55;16.65;;;14.80;99.90;;;;;;6274529;22;20016;-73
2022/10/15 14:14:40;;;;;;;24.10;16.30;;;14.80;99.90;;;;;;6274072;22;20043;-73
2022/10/15 14:17:16;;;;;;;26.83;16.27;;;14.80;99.90;;;;;;6272408;22;20580;-72
2022/10/15 14:19:50;;;;;;;28.23;16.38;;;14.80;99.90;;;;;;6274005;22;20015;-74
2022/10/15 14:22:22;;;;;;;28.10;16.77;;;14.70;99.90;;;;;;6274808;22;20016;-72
2022/10/15 14:24:51;;;;;;;26.73;16.67;;;14.80;99.90;;;;;;6274794;22;20444;-72
2022/10/15 14:27:20;;;;;;;24.48;16.40;;;14.70;99.90;;;;;;6275497;22;20083;-72
2022/10/15 14:29:48;;;;;;;29.42;16.73;;;14.80;99.90;;;;;;6275456;22;20024;-72
2022/10/15 14:32:31;;;;;;;29.17;17.02;;;14.80;99.90;;;;;;6275518;22;20050;-73
2022/10/15 14:35:01;;;;;;;25.52;16.38;;;14.70;99.90;;;;;;6274917;22;20046;-72
2022/10/15 14:37:39;;;;;;;27.83;15.80;;;14.70;99.90;;;;;;6275416;22;20019;-72
2022/10/15 14:40:07;;;;;;;30.00;15.18;;;14.70;99.90;;;;;;6275404;22;20015;-72
2022/10/15 14:42:34;;;;;;;27.92;15.50;;;14.70;99.90;;;;;;6275110;22;20015;-73
2022/10/15 14:45:26;;;;;;;25.85;15.15;;;14.80;99.90;;;;;;6274610;22;20012;-73
2022/10/15 14:47:57;;;;;;;23.80;14.63;;;14.80;99.90;;;;;;6273908;22;20082;-72
2022/10/15 14:50:32;;;;;;;22.92;14.43;;;14.80;99.90;;;;;;6273862;22;20011;-72
2022/10/15 14:52:58;;;;;;;20.77;12.85;;;14.90;99.90;;;;;;6274741;22;20046;-72
2022/10/15 14:55:27;;;;;;;22.13;13.55;;;14.90;99.90;;;;;;6274012;22;20454;-73
2022/10/15 14:57:54;;;;;;;21.42;13.18;;;14.90;99.90;;;;;;6274304;22;20507;-73
2022/10/15 15:00:28;;;;;;;19.75;13.60;;;14.90;99.90;;;;;;6274598;22;20031;-72
2022/10/15 15:02:55;;;;;;;21.13;12.82;;;14.80;99.90;;;;;;6274913;22;20018;-73
2022/10/15 15:05:24;;;;;;;21.58;12.00;;;14.90;99.90;;;;;;6246549;22;20026;-72
2022/10/15 15:07:51;;;;;;;19.48;12.20;;;14.80;99.90;;;;;;6275349;22;20059;-72
2022/10/15 15:10:17;;;;;;;17.08;10.57;;;14.80;99.90;;;;;;6274059;22;20038;-73
2022/10/15 15:12:50;;;;;;;21.27;12.13;;;14.80;99.90;;;;;;6273966;22;20008;-72
2022/10/15 15:15:18;;;;;;;21.75;12.20;;;14.80;99.90;;;;;;6274322;22;20015;-72
2022/10/15 15:17:44;;;;;;;;;;;14.80;99.90;;;;;;6276371;22;20011;-72
2022/10/15 15:20:10;;;;;;;18.63;11.20;;;14.80;99.90;;;;;;6274051;22;20244;-72
2022/10/15 15:22:37;;;;;;;15.57;9.82;;;14.80;99.90;;;;;;6275511;22;20127;-72
2022/10/15 15:25:14;;;;;;;14.82;9.95;;;14.80;99.90;;;;;;6276690;22;20011;-72
2022/10/15 15:27:40;;;;;;;17.08;10.68;;;14.90;99.90;;;;;;6276020;22;20012;-72
2022/10/15 15:30:12;;;;;;;16.65;10.65;;;14.90;99.90;;;;;;6275357;22;20065;-72
2022/10/15 15:32:38;;;;;;;13.43;9.68;;;14.90;99.90;;;;;;6275593;22;20328;-72
2022/10/15 15:35:23;;;;;;;17.77;10.00;;;14.90;99.90;;;;;;6276310;22;20019;-72
2022/10/15 15:37:49;;;;;;;16.23;10.43;;;14.90;99.90;;;;;;6274910;22;20020;-72
2022/10/15 15:40:15;;;;;;;16.17;9.65;;;14.90;99.90;;;;;;6275748;22;20090;-72
2022/10/15 15:42:41;;;;;;;13.80;9.27;;;14.90;99.90;;;;;;6248986;22;20763;-72
2022/10/15 15:45:21;;;;;;;14.65;9.63;;;15.00;99.90;;;;;;6275824;22;20016;-72
2022/10/15 15:47:46;;;;;;;14.75;9.85;;;14.90;99.90;;;;;;6276271;22;20024;-72
2022/10/15 15:50:13;;;;;;;12.20;9.13;;;15.00;99.90;;;;;;6276079;22;20340;-72
2022/10/15 15:52:38;;;;;;;14.60;9.45;;;15.00;99.90;;;;;;6275668;22;20007;-72
2022/10/15 15:55:05;;;;;;;12.88;8.82;;;14.90;99.90;;;;;;6275599;22;20480;-72
2022/10/15 15:57:30;;;;;;;12.95;9.15;;;14.90;99.90;;;;;;6275726;22;20371;-71